createdAt,value
2023-02-15T00:01:00.520Z,3.3
2023-02-15T00:02:00.155Z,3.3
2023-02-15T00:02:59.772Z,3.3
2023-02-15T00:04:00.362Z,3
2023-02-15T00:04:59.970Z,2.9
2023-02-15T00:06:00.832Z,2.8
2023-02-15T00:07:00.564Z,2.7
2023-02-15T00:07:59.773Z,2.7
2023-02-15T00:09:00.375Z,2.7
2023-02-15T00:09:59.995Z,2.8
2023-02-15T00:11:00.547Z,2.8
2023-02-15T00:12:00.134Z,2.8
2023-02-15T00:12:59.722Z,2.8
2023-02-15T00:14:00.355Z,2.8
2023-02-15T00:14:59.982Z,2.8
2023-02-15T00:16:00.855Z,2.8
2023-02-15T00:17:00.542Z,2.9
2023-02-15T00:17:59.779Z,2.9
2023-02-15T00:19:00.336Z,2.9
2023-02-15T00:19:59.944Z,2.8
2023-02-15T00:21:00.531Z,2.7
2023-02-15T00:22:00.124Z,2.7
2023-02-15T00:22:59.711Z,2.6
2023-02-15T00:24:00.297Z,2.6
2023-02-15T00:24:59.892Z,2.5
2023-02-15T00:26:00.816Z,2.5
2023-02-15T00:27:00.164Z,2.5
2023-02-15T00:27:59.714Z,2.5
2023-02-15T00:29:00.306Z,2.7
2023-02-15T00:29:59.978Z,2.7
2023-02-15T00:31:00.667Z,2.6
2023-02-15T00:32:00.331Z,2.7
2023-02-15T00:32:59.748Z,2.6
2023-02-15T00:34:00.321Z,2.6
2023-02-15T00:34:59.945Z,2.7
2023-02-15T00:36:00.850Z,2.7
2023-02-15T00:36:59.593Z,2.7
2023-02-15T00:38:00.210Z,2.8
2023-02-15T00:39:00.391Z,2.7
2023-02-15T00:39:59.982Z,2.6
2023-02-15T00:41:00.548Z,2.6
2023-02-15T00:42:00.189Z,2.4
2023-02-15T00:42:59.807Z,2.3
2023-02-15T00:44:00.370Z,2.3
2023-02-15T00:44:59.984Z,2.4
2023-02-15T00:46:00.864Z,2.4
2023-02-15T00:46:59.696Z,2.5
2023-02-15T00:48:00.293Z,2.5
2023-02-15T00:48:59.888Z,2.3
2023-02-15T00:50:00.510Z,2.2
2023-02-15T00:51:00.137Z,2.2
2023-02-15T00:51:59.752Z,2.2
2023-02-15T00:53:00.294Z,2.3
2023-02-15T00:53:59.898Z,2.3
2023-02-15T00:55:00.509Z,2.3
2023-02-15T00:56:00.482Z,2.2
2023-02-15T00:57:00.200Z,2.2
2023-02-15T00:57:59.797Z,2.2
2023-02-15T00:59:00.404Z,2.3
2023-02-15T01:00:00.529Z,2.2
2023-02-15T01:01:00.277Z,2.3
2023-02-15T01:01:59.726Z,2.3
2023-02-15T01:03:00.317Z,2.3
2023-02-15T01:03:59.964Z,2.4
2023-02-15T01:05:00.520Z,2.2
2023-02-15T01:06:00.469Z,2.1
2023-02-15T01:07:00.260Z,2
2023-02-15T01:07:59.872Z,1.8
2023-02-15T01:09:00.474Z,1.8
2023-02-15T01:10:00.103Z,1.9
2023-02-15T01:10:59.654Z,1.9
2023-02-15T01:12:00.256Z,2
2023-02-15T01:12:59.847Z,1.8
2023-02-15T01:14:00.430Z,1.7
2023-02-15T01:15:00.024Z,1.6
2023-02-15T01:15:59.850Z,1.6
2023-02-15T01:17:00.222Z,1.4
2023-02-15T01:17:59.826Z,1.3
2023-02-15T01:19:00.400Z,1.3
2023-02-15T01:19:59.996Z,1.3
2023-02-15T01:20:59.590Z,1.3
2023-02-15T01:22:00.185Z,1.5
2023-02-15T01:22:59.773Z,1.6
2023-02-15T01:24:00.385Z,1.5
2023-02-15T01:24:59.980Z,1.6
2023-02-15T01:26:00.837Z,1.8
2023-02-15T01:27:00.550Z,1.8
2023-02-15T01:27:59.792Z,1.9
2023-02-15T01:29:00.404Z,2
2023-02-15T01:30:00.046Z,2
2023-02-15T01:30:59.615Z,2.1
2023-02-15T01:32:00.287Z,2
2023-02-15T01:32:59.821Z,2
2023-02-15T01:34:00.435Z,2
2023-02-15T01:35:00.030Z,2
2023-02-15T01:35:59.937Z,1.9
2023-02-15T01:37:00.184Z,1.9
2023-02-15T01:37:59.822Z,2
2023-02-15T01:39:00.413Z,1.9
2023-02-15T01:40:00.102Z,1.8
2023-02-15T01:40:59.570Z,1.8
2023-02-15T01:42:00.162Z,1.8
2023-02-15T01:42:59.749Z,1.8
2023-02-15T01:44:00.378Z,1.8
2023-02-15T01:44:59.976Z,1.8
2023-02-15T01:46:00.994Z,1.8
2023-02-15T01:46:59.692Z,1.8
2023-02-15T01:48:00.284Z,1.7
2023-02-15T01:48:59.896Z,1.7
2023-02-15T01:50:00.462Z,1.7
2023-02-15T01:51:00.273Z,1.6
2023-02-15T01:51:59.656Z,1.6
2023-02-15T01:53:00.244Z,1.6
2023-02-15T01:53:59.847Z,1.5
2023-02-15T01:55:00.422Z,1.5
2023-02-15T01:56:00.435Z,1.6
2023-02-15T01:57:00.197Z,1.5
2023-02-15T01:57:59.785Z,1.5
2023-02-15T01:59:00.372Z,1.3
2023-02-15T01:59:59.962Z,1.2
2023-02-15T02:01:01.230Z,1.2
2023-02-15T02:02:00.081Z,1.3
2023-02-15T02:02:59.733Z,1.3
2023-02-15T02:04:00.250Z,1.3
2023-02-15T02:04:59.838Z,1.3
2023-02-15T02:06:00.741Z,1.3
2023-02-15T02:07:00.102Z,1.3
2023-02-15T02:07:59.627Z,1.3
2023-02-15T02:09:00.223Z,1.2
2023-02-15T02:09:59.819Z,1.2
2023-02-15T02:11:00.386Z,1.3
2023-02-15T02:12:00.027Z,1.3
2023-02-15T02:12:59.582Z,1.3
2023-02-15T02:14:00.148Z,1.3
2023-02-15T02:14:59.753Z,1.3
2023-02-15T02:16:00.650Z,1
2023-02-15T02:16:59.975Z,0.8
2023-02-15T02:18:00.582Z,0.8
2023-02-15T02:19:00.171Z,0.7
2023-02-15T02:19:59.766Z,0.7
2023-02-15T02:21:00.352Z,0.7
2023-02-15T02:21:59.945Z,0.8
2023-02-15T02:23:00.546Z,0.8
2023-02-15T02:24:00.137Z,1
2023-02-15T02:24:59.964Z,0.9
2023-02-15T02:26:00.598Z,1
2023-02-15T02:26:59.971Z,1
2023-02-15T02:28:00.596Z,0.9
2023-02-15T02:29:00.183Z,0.9
2023-02-15T02:29:59.821Z,1
2023-02-15T02:31:00.501Z,0.9
2023-02-15T02:32:00.057Z,1
2023-02-15T02:32:59.589Z,1
2023-02-15T02:34:00.158Z,1.1
2023-02-15T02:34:59.744Z,1.1
2023-02-15T02:36:00.634Z,1.1
2023-02-15T02:37:00.008Z,1
2023-02-15T02:37:59.575Z,0.9
2023-02-15T02:39:00.145Z,1
2023-02-15T02:39:59.752Z,0.9
2023-02-15T02:41:00.374Z,0.9
2023-02-15T02:41:59.965Z,0.9
2023-02-15T02:43:00.548Z,0.9
2023-02-15T02:44:00.167Z,0.9
2023-02-15T02:44:59.780Z,0.9
2023-02-15T02:46:00.705Z,0.9
2023-02-15T02:47:00.010Z,0.9
2023-02-15T02:47:59.581Z,0.8
2023-02-15T02:49:00.168Z,0.7
2023-02-15T02:49:59.777Z,0.7
2023-02-15T02:51:00.353Z,0.6
2023-02-15T02:51:59.964Z,0.4
2023-02-15T02:53:00.546Z,0.3
2023-02-15T02:54:00.157Z,0.4
2023-02-15T02:54:59.750Z,0.3
2023-02-15T02:56:00.757Z,0.2
2023-02-15T02:57:00.508Z,0.2
2023-02-15T02:58:00.112Z,0.2
2023-02-15T02:58:59.734Z,0.2
2023-02-15T03:00:00.366Z,0.3
2023-02-15T03:00:59.958Z,0.3
2023-02-15T03:02:00.639Z,0.4
2023-02-15T03:03:00.276Z,0.5
2023-02-15T03:03:59.788Z,0.6
2023-02-15T03:05:00.392Z,0.6
2023-02-15T03:06:00.286Z,0.6
2023-02-15T03:06:59.562Z,0.6
2023-02-15T03:08:00.149Z,0.4
2023-02-15T03:08:59.738Z,0.4
2023-02-15T03:10:00.343Z,0.3
2023-02-15T03:10:59.935Z,0.4
2023-02-15T03:12:00.520Z,0.3
2023-02-15T03:13:00.109Z,0.2
2023-02-15T03:13:59.697Z,0.2
2023-02-15T03:15:00.304Z,0.1
2023-02-15T03:16:00.170Z,0
2023-02-15T03:17:00.050Z,0.1
2023-02-15T03:17:59.657Z,0.1
2023-02-15T03:19:00.247Z,0.2
2023-02-15T03:19:59.874Z,0.3
2023-02-15T03:21:00.418Z,0.3
2023-02-15T03:22:00.008Z,0.4
2023-02-15T03:22:59.594Z,0.5
2023-02-15T03:24:00.188Z,0.6
2023-02-15T03:24:59.796Z,0.6
2023-02-15T03:26:00.673Z,0.5
2023-02-15T03:27:00.018Z,0.5
2023-02-15T03:27:59.603Z,0.4
2023-02-15T03:29:00.191Z,0.4
2023-02-15T03:29:59.827Z,0.3
2023-02-15T03:31:00.502Z,0.3
2023-02-15T03:32:00.185Z,0.2
2023-02-15T03:32:59.617Z,0.3
2023-02-15T03:34:00.192Z,0.4
2023-02-15T03:34:59.779Z,0.4
2023-02-15T03:36:00.799Z,0.4
2023-02-15T03:37:00.054Z,0.5
2023-02-15T03:37:59.609Z,0.5
2023-02-15T03:39:00.209Z,0.4
2023-02-15T03:39:59.796Z,0.4
2023-02-15T03:41:00.421Z,0.4
2023-02-15T03:42:00.010Z,0.3
2023-02-15T03:42:59.629Z,0.1
2023-02-15T03:44:00.178Z,0.2
2023-02-15T03:44:59.784Z,0.1
2023-02-15T03:46:00.547Z,0.1
2023-02-15T03:47:00.053Z,0.1
2023-02-15T03:47:59.620Z,0.2
2023-02-15T03:49:00.153Z,0.1
2023-02-15T03:49:59.743Z,0.2
2023-02-15T03:51:00.318Z,0.2
2023-02-15T03:51:59.904Z,0.3
2023-02-15T03:53:00.498Z,0.4
2023-02-15T03:54:00.131Z,0.4
2023-02-15T03:54:59.673Z,0.3
2023-02-15T03:56:00.745Z,0.3
2023-02-15T03:57:00.514Z,0.2
2023-02-15T03:58:00.139Z,0.3
2023-02-15T03:58:59.761Z,0.3
2023-02-15T04:00:00.309Z,0.3
2023-02-15T04:00:59.992Z,0.2
2023-02-15T04:02:00.550Z,0.2
2023-02-15T04:03:00.266Z,0.2
2023-02-15T04:03:59.816Z,0.2
2023-02-15T04:05:00.350Z,0.2
2023-02-15T04:06:00.188Z,0.3
2023-02-15T04:07:00.524Z,0.4
2023-02-15T04:08:00.128Z,0.4
2023-02-15T04:08:59.746Z,0.3
2023-02-15T04:10:00.318Z,0.4
2023-02-15T04:10:59.929Z,0.5
2023-02-15T04:12:00.510Z,0.5
2023-02-15T04:13:00.121Z,0.5
2023-02-15T04:13:59.709Z,0.5
2023-02-15T04:15:00.301Z,0.5
2023-02-15T04:16:00.315Z,0.5
2023-02-15T04:17:00.127Z,0.5
2023-02-15T04:17:59.724Z,0.6
2023-02-15T04:19:00.300Z,0.5
2023-02-15T04:19:59.945Z,0.3
2023-02-15T04:21:00.551Z,0.2
2023-02-15T04:22:00.131Z,0.1
2023-02-15T04:22:59.714Z,0.2
2023-02-15T04:24:00.297Z,0.3
2023-02-15T04:24:59.903Z,0.3
2023-02-15T04:26:00.890Z,0.1
2023-02-15T04:27:00.154Z,0
2023-02-15T04:27:59.708Z,0
2023-02-15T04:29:00.308Z,0.1
2023-02-15T04:29:59.950Z,0.2
2023-02-15T04:31:00.552Z,0.3
2023-02-15T04:32:00.296Z,0.4
2023-02-15T04:32:59.720Z,0.5
2023-02-15T04:34:00.305Z,0.5
2023-02-15T04:34:59.893Z,0.6
2023-02-15T04:36:00.866Z,0.4
2023-02-15T04:36:59.765Z,0.5
2023-02-15T04:38:00.358Z,0.6
2023-02-15T04:38:59.949Z,0.6
2023-02-15T04:40:00.555Z,0.4
2023-02-15T04:41:00.178Z,0.5
2023-02-15T04:41:59.838Z,0.5
2023-02-15T04:43:00.350Z,0.5
2023-02-15T04:43:59.946Z,0.5
2023-02-15T04:45:00.529Z,0.5
2023-02-15T04:46:00.405Z,0.5
2023-02-15T04:46:59.801Z,0.5
2023-02-15T04:48:00.344Z,0.3
2023-02-15T04:48:59.936Z,0.3
2023-02-15T04:50:00.529Z,0.3
2023-02-15T04:51:00.118Z,0.2
2023-02-15T04:51:59.768Z,0.3
2023-02-15T04:53:00.295Z,0.3
2023-02-15T04:53:59.904Z,0.1
2023-02-15T04:55:00.470Z,0
2023-02-15T04:56:00.410Z,0.1
2023-02-15T04:56:59.720Z,0.1
2023-02-15T04:58:00.298Z,0.1
2023-02-15T04:58:59.917Z,0
2023-02-15T05:00:00.470Z,0.1
2023-02-15T05:01:00.134Z,0.1
2023-02-15T05:01:59.643Z,0.1
2023-02-15T05:03:00.229Z,0.1
2023-02-15T05:03:59.868Z,0.1
2023-02-15T05:05:00.421Z,0.1
2023-02-15T05:06:00.311Z,0.1
2023-02-15T05:06:59.582Z,0
2023-02-15T05:08:00.197Z,0
2023-02-15T05:08:59.811Z,0.1
2023-02-15T05:10:00.391Z,0.1
2023-02-15T05:10:59.983Z,0.1
2023-02-15T05:11:59.567Z,0
2023-02-15T05:13:00.151Z,0.1
2023-02-15T05:13:59.762Z,0
2023-02-15T05:15:00.334Z,0
2023-02-15T05:16:00.271Z,0
2023-02-15T05:17:00.499Z,0.1
2023-02-15T05:18:00.117Z,0.1
2023-02-15T05:18:59.702Z,0
2023-02-15T05:20:00.316Z,0
2023-02-15T05:20:59.918Z,0
2023-02-15T05:22:00.501Z,0
2023-02-15T05:23:00.086Z,0
2023-02-15T05:23:59.699Z,0.1
2023-02-15T05:25:00.284Z,0.1
2023-02-15T05:26:00.130Z,0.2
2023-02-15T05:27:00.479Z,0.3
2023-02-15T05:28:00.100Z,0.3
2023-02-15T05:28:59.656Z,0.3
2023-02-15T05:30:00.367Z,0.2
2023-02-15T05:31:00.257Z,0.1
2023-02-15T05:32:00.698Z,0.1
2023-02-15T05:33:00.344Z,0.1
2023-02-15T05:33:59.715Z,0
2023-02-15T05:35:00.300Z,0
2023-02-15T05:36:01.325Z,0
2023-02-15T05:37:00.463Z,0
2023-02-15T05:38:00.087Z,0
2023-02-15T05:38:59.695Z,0.1
2023-02-15T05:40:00.314Z,0.2
2023-02-15T05:40:59.904Z,0.3
2023-02-15T05:42:00.514Z,0.2
2023-02-15T05:43:00.189Z,0.3
2023-02-15T05:43:59.754Z,0.3
2023-02-15T05:45:00.329Z,0.3
2023-02-15T05:46:00.205Z,0.4
2023-02-15T05:47:00.508Z,0.4
2023-02-15T05:48:00.141Z,0.5
2023-02-15T05:48:59.906Z,0.5
2023-02-15T05:50:00.318Z,0.4
2023-02-15T05:50:59.906Z,0.3
2023-02-15T05:52:00.500Z,0.2
2023-02-15T05:53:00.117Z,0.2
2023-02-15T05:53:59.708Z,0.2
2023-02-15T05:55:00.294Z,0.3
2023-02-15T05:56:00.581Z,0.3
2023-02-15T05:56:59.612Z,0.3
2023-02-15T05:58:00.199Z,0.4
2023-02-15T05:58:59.701Z,0.5
2023-02-15T06:00:00.298Z,0.5
2023-02-15T06:00:59.887Z,0.5
2023-02-15T06:02:00.526Z,0.4
2023-02-15T06:03:00.125Z,0.4
2023-02-15T06:03:59.710Z,0.4
2023-02-15T06:05:00.277Z,0.5
2023-02-15T06:06:00.211Z,0.4
2023-02-15T06:07:00.049Z,0.3
2023-02-15T06:07:59.647Z,0.2
2023-02-15T06:09:00.249Z,0.3
2023-02-15T06:09:59.842Z,0.4
2023-02-15T06:11:00.432Z,0.3
2023-02-15T06:12:00.085Z,0.4
2023-02-15T06:12:59.612Z,0.5
2023-02-15T06:14:00.214Z,0.5
2023-02-15T06:14:59.824Z,0.6
2023-02-15T06:16:00.689Z,0.6
2023-02-15T06:17:00.047Z,0.6
2023-02-15T06:17:59.640Z,0.7
2023-02-15T06:19:00.219Z,0.8
2023-02-15T06:19:59.838Z,0.9
2023-02-15T06:21:00.402Z,1
2023-02-15T06:21:59.989Z,1
2023-02-15T06:22:59.571Z,1.1
2023-02-15T06:24:00.158Z,0.9
2023-02-15T06:24:59.776Z,1
2023-02-15T06:26:00.730Z,0.8
2023-02-15T06:27:00.537Z,0.7
2023-02-15T06:28:00.150Z,0.6
2023-02-15T06:28:59.739Z,0.7
2023-02-15T06:30:00.406Z,0.6
2023-02-15T06:31:00.053Z,0.7
2023-02-15T06:32:00.648Z,0.7
2023-02-15T06:33:00.299Z,0.7
2023-02-15T06:33:59.797Z,0.6
2023-02-15T06:35:00.401Z,0.7
2023-02-15T06:36:00.354Z,0.7
2023-02-15T06:36:59.568Z,0.6
2023-02-15T06:38:00.197Z,0.4
2023-02-15T06:38:59.815Z,0.6
2023-02-15T06:40:02.613Z,0.6
2023-02-15T06:40:59.961Z,0.7
2023-02-15T06:42:00.552Z,0.8
2023-02-15T06:43:00.218Z,0.9
2023-02-15T06:43:59.820Z,1.1
2023-02-15T06:45:00.386Z,1.3
2023-02-15T06:46:00.501Z,1.3
2023-02-15T06:47:00.313Z,1.3
2023-02-15T06:47:59.927Z,1.4
2023-02-15T06:49:00.513Z,1.4
2023-02-15T06:50:00.113Z,1.4
2023-02-15T06:50:59.708Z,1.5
2023-02-15T06:52:00.283Z,1.5
2023-02-15T06:52:59.894Z,1.5
2023-02-15T06:54:00.451Z,1.1
2023-02-15T06:55:00.048Z,0.9
2023-02-15T06:55:59.905Z,0.8
2023-02-15T06:57:00.218Z,0.9
2023-02-15T06:57:59.865Z,0.8
2023-02-15T06:59:00.424Z,0.9
2023-02-15T07:00:00.041Z,0.8
2023-02-15T07:00:59.598Z,0.8
2023-02-15T07:02:00.184Z,0.8
2023-02-15T07:02:59.794Z,0.8
2023-02-15T07:04:00.381Z,0.7
2023-02-15T07:05:00.102Z,0.7
2023-02-15T07:05:59.918Z,0.8
2023-02-15T07:06:59.681Z,0.8
2023-02-15T07:08:00.292Z,0.8
2023-02-15T07:08:59.919Z,1
2023-02-15T07:10:00.537Z,0.9
2023-02-15T07:11:00.142Z,0.8
2023-02-15T07:11:59.732Z,0.8
2023-02-15T07:13:00.324Z,0.9
2023-02-15T07:14:00.472Z,1.1
2023-02-15T07:15:00.081Z,1.2
2023-02-15T07:15:59.963Z,1.2
2023-02-15T07:17:00.228Z,1.3
2023-02-15T07:17:59.818Z,1.2
2023-02-15T07:19:00.423Z,1.3
2023-02-15T07:20:00.009Z,1.3
2023-02-15T07:20:59.601Z,1.3
2023-02-15T07:22:00.185Z,1.1
2023-02-15T07:22:59.773Z,1
2023-02-15T07:24:00.386Z,1
2023-02-15T07:24:59.975Z,1
2023-02-15T07:25:59.690Z,1
2023-02-15T07:27:00.140Z,1.1
2023-02-15T07:27:59.730Z,1.2
2023-02-15T07:29:00.336Z,1.1
2023-02-15T07:30:00.014Z,1.2
2023-02-15T07:31:00.514Z,1.2
2023-02-15T07:32:00.248Z,1.2
2023-02-15T07:32:59.726Z,1.1
2023-02-15T07:34:00.316Z,1.2
2023-02-15T07:34:59.934Z,1.3
2023-02-15T07:36:00.720Z,1.2
2023-02-15T07:37:00.480Z,1.2
2023-02-15T07:37:59.719Z,1.3
2023-02-15T07:39:00.287Z,1.3
2023-02-15T07:39:59.906Z,1.3
2023-02-15T07:41:00.474Z,1.4
2023-02-15T07:42:00.107Z,1.5
2023-02-15T07:42:59.697Z,1.5
2023-02-15T07:44:00.333Z,1.5
2023-02-15T07:44:59.940Z,1.5
2023-02-15T07:46:00.904Z,1.5
2023-02-15T07:46:59.671Z,1.6
2023-02-15T07:48:00.298Z,1.6
2023-02-15T07:48:59.882Z,1.7
2023-02-15T07:50:00.480Z,1.7
2023-02-15T07:51:00.107Z,1.8
2023-02-15T07:51:59.695Z,1.8
2023-02-15T07:53:00.263Z,1.8
2023-02-15T07:53:59.854Z,1.9
2023-02-15T07:55:00.443Z,1.9
2023-02-15T07:56:00.278Z,2
2023-02-15T07:56:59.637Z,2.1
2023-02-15T07:58:00.207Z,2.2
2023-02-15T07:58:59.794Z,2.2
2023-02-15T08:00:00.380Z,2.3
2023-02-15T08:00:59.968Z,2.3
2023-02-15T08:01:59.583Z,2.3
2023-02-15T08:03:00.267Z,2.4
2023-02-15T08:04:00.042Z,2.4
2023-02-15T08:05:00.364Z,2.5
2023-02-15T08:06:00.301Z,2.5
2023-02-15T08:07:00.123Z,2.5
2023-02-15T08:07:59.735Z,2.5
2023-02-15T08:09:00.334Z,2.6
2023-02-15T08:09:59.924Z,2.6
2023-02-15T08:11:00.513Z,2.8
2023-02-15T08:12:00.120Z,2.7
2023-02-15T08:12:59.738Z,2.8
2023-02-15T08:14:00.409Z,2.8
2023-02-15T08:14:59.954Z,2.9
2023-02-15T08:16:00.959Z,2.9
2023-02-15T08:16:59.828Z,3.1
2023-02-15T08:18:00.441Z,3.3
2023-02-15T08:19:00.036Z,3.4
2023-02-15T08:19:59.648Z,3.5
2023-02-15T08:21:00.204Z,3.6
2023-02-15T08:21:59.794Z,3.8
2023-02-15T08:23:00.406Z,3.8
2023-02-15T08:23:59.996Z,3.9
2023-02-15T08:24:59.577Z,4
2023-02-15T08:26:00.546Z,4.1
2023-02-15T08:27:00.354Z,4.2
2023-02-15T08:27:59.977Z,4.2
2023-02-15T08:28:59.571Z,4.2
2023-02-15T08:30:00.264Z,4.2
2023-02-15T08:31:00.086Z,4.3
2023-02-15T08:32:00.438Z,4.4
2023-02-15T08:33:00.075Z,4.4
2023-02-15T08:33:59.648Z,4.5
2023-02-15T08:35:00.254Z,4.6
2023-02-15T08:35:59.983Z,4.6
2023-02-15T08:37:00.428Z,4.7
2023-02-15T08:38:00.017Z,4.7
2023-02-15T08:38:59.601Z,4.8
2023-02-15T08:40:00.219Z,4.8
2023-02-15T08:40:59.967Z,4.9
2023-02-15T08:42:00.402Z,5
2023-02-15T08:42:59.990Z,5.1
2023-02-15T08:43:59.593Z,5.1
2023-02-15T08:45:00.219Z,5.1
2023-02-15T08:45:59.845Z,5.2
2023-02-15T08:47:00.420Z,5.2
2023-02-15T08:48:00.019Z,5.3
2023-02-15T08:48:59.819Z,5.3
2023-02-15T08:50:00.195Z,5.4
2023-02-15T08:50:59.957Z,5.4
2023-02-15T08:52:00.417Z,5.5
2023-02-15T08:53:00.009Z,5.5
2023-02-15T08:53:59.593Z,5.6
2023-02-15T08:55:00.189Z,5.7
2023-02-15T08:55:59.791Z,5.7
2023-02-15T08:57:00.408Z,5.7
2023-02-15T08:58:00.000Z,5.8
2023-02-15T08:58:59.571Z,5.8
2023-02-15T09:00:00.164Z,5.7
2023-02-15T09:01:00.023Z,5.8
2023-02-15T09:02:00.430Z,5.9
2023-02-15T09:02:59.990Z,5.9
2023-02-15T09:03:59.577Z,6
2023-02-15T09:05:00.189Z,6
2023-02-15T09:05:59.783Z,6
2023-02-15T09:07:00.386Z,6.1
2023-02-15T09:08:00.041Z,6.2
2023-02-15T09:08:59.575Z,6.3
2023-02-15T09:10:00.169Z,6.3
2023-02-15T09:11:00.207Z,6.4
2023-02-15T09:11:59.972Z,6.4
2023-02-15T09:12:59.582Z,6.4
2023-02-15T09:14:00.152Z,6.4
2023-02-15T09:14:59.758Z,6.5
2023-02-15T09:16:00.322Z,6.6
2023-02-15T09:16:59.912Z,6.6
2023-02-15T09:18:00.496Z,6.7
2023-02-15T09:19:00.144Z,6.7
2023-02-15T09:19:59.754Z,6.7
2023-02-15T09:21:00.588Z,6.8
2023-02-15T09:21:59.974Z,6.6
2023-02-15T09:22:59.989Z,6.7
2023-02-15T09:24:00.194Z,6.7
2023-02-15T09:24:59.783Z,6.8
2023-02-15T09:26:00.368Z,6.8
2023-02-15T09:26:59.958Z,6.8
2023-02-15T09:27:59.545Z,6.8
2023-02-15T09:29:00.152Z,6.8
2023-02-15T09:29:59.766Z,6.9
2023-02-15T09:31:00.855Z,7
2023-02-15T09:31:59.775Z,7.1
2023-02-15T09:33:00.369Z,7.2
2023-02-15T09:33:59.981Z,7.3
2023-02-15T09:34:59.547Z,7.3
2023-02-15T09:36:00.134Z,7.4
2023-02-15T09:36:59.748Z,7.5
2023-02-15T09:38:00.315Z,7.6
2023-02-15T09:38:59.912Z,7.6
2023-02-15T09:40:00.555Z,7.7
2023-02-15T09:41:00.586Z,7.7
2023-02-15T09:42:00.286Z,7.6
2023-02-15T09:42:59.888Z,7.6
2023-02-15T09:44:00.495Z,7.6
2023-02-15T09:45:00.173Z,7.7
2023-02-15T09:45:59.765Z,7.8
2023-02-15T09:47:00.294Z,7.8
2023-02-15T09:47:59.895Z,7.9
2023-02-15T09:49:00.586Z,7.9
2023-02-15T09:50:00.223Z,8
2023-02-15T09:51:00.007Z,8
2023-02-15T09:52:00.306Z,8.1
2023-02-15T09:52:59.893Z,8.1
2023-02-15T09:54:00.484Z,8.1
2023-02-15T09:55:00.106Z,8.2
2023-02-15T09:55:59.722Z,8.2
2023-02-15T09:57:00.312Z,8.2
2023-02-15T09:57:59.904Z,8.2
2023-02-15T09:59:00.491Z,8.3
2023-02-15T10:00:00.134Z,8.3
2023-02-15T10:01:00.093Z,8.5
2023-02-15T10:01:59.957Z,8.5
2023-02-15T10:02:59.548Z,8.6
2023-02-15T10:04:00.151Z,8.5
2023-02-15T10:04:59.747Z,8.4
2023-02-15T10:06:00.355Z,8.4
2023-02-15T10:06:59.943Z,8.4
2023-02-15T10:08:00.525Z,8.5
2023-02-15T10:09:00.111Z,8.6
2023-02-15T10:09:59.698Z,8.7
2023-02-15T10:11:00.570Z,8.8
2023-02-15T10:11:59.987Z,8.8
2023-02-15T10:13:00.530Z,8.8
2023-02-15T10:14:00.126Z,9
2023-02-15T10:14:59.719Z,9.1
2023-02-15T10:16:00.298Z,9.2
2023-02-15T10:16:59.970Z,9.2
2023-02-15T10:18:00.498Z,9.3
2023-02-15T10:19:00.101Z,9.4
2023-02-15T10:19:59.688Z,9.5
2023-02-15T10:21:00.667Z,9.6
2023-02-15T10:22:00.446Z,9.6
2023-02-15T10:23:00.059Z,9.7
2023-02-15T10:23:59.652Z,9.8
2023-02-15T10:25:00.241Z,9.8
2023-02-15T10:26:00.694Z,9.8
2023-02-15T10:27:00.001Z,9.8
2023-02-15T10:27:59.634Z,9.9
2023-02-15T10:29:00.160Z,10
2023-02-15T10:29:59.765Z,9.9
2023-02-15T10:31:00.536Z,9.8
2023-02-15T10:32:00.162Z,9.8
2023-02-15T10:32:59.611Z,9.9
2023-02-15T10:34:00.153Z,9.9
2023-02-15T10:34:59.746Z,9.9
2023-02-15T10:36:00.323Z,9.9
2023-02-15T10:36:59.916Z,9.8
2023-02-15T10:38:00.504Z,9.8
2023-02-15T10:39:00.180Z,9.8
2023-02-15T10:39:59.741Z,9.9
2023-02-15T10:41:00.722Z,10
2023-02-15T10:41:59.554Z,10
2023-02-15T10:43:00.143Z,10.1
2023-02-15T10:43:59.782Z,10.1
2023-02-15T10:45:00.345Z,10.2
2023-02-15T10:46:00.038Z,10.2
2023-02-15T10:47:00.517Z,10.2
2023-02-15T10:48:00.106Z,10.1
2023-02-15T10:48:59.712Z,10.1
2023-02-15T10:50:00.281Z,10.2
2023-02-15T10:50:59.952Z,10.1
2023-02-15T10:52:00.453Z,10.2
2023-02-15T10:53:00.039Z,10.3
2023-02-15T10:53:59.644Z,10.3
2023-02-15T10:55:00.209Z,10.3
2023-02-15T10:55:59.812Z,10.4
2023-02-15T10:57:00.370Z,10.5
2023-02-15T10:58:01.323Z,10.4
2023-02-15T10:58:59.982Z,10.5
2023-02-15T11:00:00.254Z,10.5
2023-02-15T11:00:59.912Z,10.6
2023-02-15T11:02:00.372Z,10.7
2023-02-15T11:02:59.963Z,10.8
2023-02-15T11:03:59.546Z,10.8
2023-02-15T11:05:00.178Z,10.8
2023-02-15T11:05:59.814Z,10.8
2023-02-15T11:07:00.367Z,10.9
2023-02-15T11:07:59.979Z,10.9
2023-02-15T11:09:00.563Z,11
2023-02-15T11:10:00.163Z,11
2023-02-15T11:10:59.905Z,11
2023-02-15T11:12:00.330Z,11.1
2023-02-15T11:12:59.922Z,11.1
2023-02-15T11:14:00.529Z,11.1
2023-02-15T11:15:00.135Z,11.2
2023-02-15T11:15:59.862Z,11.2
2023-02-15T11:17:00.317Z,11.3
2023-02-15T11:17:59.930Z,11.3
2023-02-15T11:19:00.492Z,11.4
2023-02-15T11:20:00.096Z,11.4
2023-02-15T11:21:00.007Z,11.6
2023-02-15T11:22:00.267Z,11.6
2023-02-15T11:22:59.860Z,11.6
2023-02-15T11:24:00.443Z,11.7
2023-02-15T11:25:00.032Z,11.7
2023-02-15T11:25:59.648Z,11.7
2023-02-15T11:27:00.239Z,11.8
2023-02-15T11:27:59.841Z,11.8
2023-02-15T11:29:00.414Z,11.9
2023-02-15T11:30:00.083Z,11.9
2023-02-15T11:30:59.839Z,12
2023-02-15T11:32:00.391Z,12.1
2023-02-15T11:32:59.839Z,12.1
2023-02-15T11:34:00.408Z,12.2
2023-02-15T11:34:59.990Z,12.3
2023-02-15T11:35:59.599Z,12.4
2023-02-15T11:37:00.162Z,12.4
2023-02-15T11:37:59.747Z,12.6
2023-02-15T11:39:00.333Z,12.7
2023-02-15T11:39:59.921Z,12.8
2023-02-15T11:41:00.875Z,12.9
2023-02-15T11:41:59.628Z,13.1
2023-02-15T11:43:00.218Z,13.1
2023-02-15T11:44:00.336Z,13.2
2023-02-15T11:44:59.927Z,13.2
2023-02-15T11:45:59.599Z,13.2
2023-02-15T11:47:00.109Z,13.1
2023-02-15T11:47:59.825Z,13.1
2023-02-15T11:49:00.283Z,13.1
2023-02-15T11:49:59.880Z,13.2
2023-02-15T11:51:00.698Z,13.1
2023-02-15T11:52:00.147Z,13.2
2023-02-15T11:52:59.669Z,13.2
2023-02-15T11:54:00.253Z,13.3
2023-02-15T11:54:59.850Z,13.2
2023-02-15T11:56:00.432Z,13.1
2023-02-15T11:57:00.043Z,13.2
2023-02-15T11:57:59.620Z,13.3
2023-02-15T11:59:00.195Z,13.5
2023-02-15T11:59:59.787Z,13.5
2023-02-15T12:01:00.633Z,13.5
2023-02-15T12:02:00.072Z,13.6
2023-02-15T12:02:59.654Z,13.6
2023-02-15T12:04:00.318Z,13.4
2023-02-15T12:04:59.873Z,13.3
2023-02-15T12:06:00.427Z,13.4
2023-02-15T12:07:03.274Z,13.4
2023-02-15T12:07:59.833Z,13.4
2023-02-15T12:09:00.416Z,13.4
2023-02-15T12:09:59.836Z,13.4
2023-02-15T12:11:00.760Z,13.6
2023-02-15T12:12:00.113Z,13.6
2023-02-15T12:12:59.681Z,13.6
2023-02-15T12:14:00.234Z,13.8
2023-02-15T12:14:59.821Z,13.8
2023-02-15T12:16:00.471Z,13.7
2023-02-15T12:17:00.085Z,13.7
2023-02-15T12:17:59.679Z,13.7
2023-02-15T12:19:00.223Z,13.6
2023-02-15T12:19:59.843Z,13.7
2023-02-15T12:21:00.622Z,13.8
2023-02-15T12:22:00.077Z,13.8
2023-02-15T12:22:59.660Z,13.8
2023-02-15T12:24:00.239Z,13.8
2023-02-15T12:24:59.830Z,13.9
2023-02-15T12:26:00.410Z,13.9
2023-02-15T12:27:00.015Z,13.8
2023-02-15T12:27:59.588Z,13.9
2023-02-15T12:29:00.192Z,13.7
2023-02-15T12:29:59.833Z,13.8
2023-02-15T12:31:00.801Z,13.7
2023-02-15T12:31:59.758Z,13.7
2023-02-15T12:33:00.387Z,13.7
2023-02-15T12:33:59.977Z,13.8
2023-02-15T12:35:01.348Z,13.7
2023-02-15T12:36:00.550Z,13.8
2023-02-15T12:36:59.798Z,13.8
2023-02-15T12:38:00.383Z,13.9
2023-02-15T12:39:00.015Z,14
2023-02-15T12:39:59.602Z,14
2023-02-15T12:41:00.374Z,14
2023-02-15T12:41:59.825Z,14
2023-02-15T12:43:00.404Z,14.1
2023-02-15T12:43:59.994Z,14.1
2023-02-15T12:44:59.620Z,13.9
2023-02-15T12:46:00.533Z,13.9
2023-02-15T12:46:59.960Z,13.9
2023-02-15T12:48:00.415Z,13.9
2023-02-15T12:49:00.010Z,14
2023-02-15T12:49:59.613Z,13.8
2023-02-15T12:51:00.176Z,13.9
2023-02-15T12:51:59.795Z,13.9
2023-02-15T12:53:00.357Z,14.1
2023-02-15T12:53:59.944Z,14
2023-02-15T12:55:00.571Z,14.1
2023-02-15T12:56:00.157Z,14.1
2023-02-15T12:56:59.779Z,13.9
2023-02-15T12:58:00.331Z,13.9
2023-02-15T12:58:59.918Z,14.1
2023-02-15T13:00:00.526Z,14
2023-02-15T13:01:00.404Z,14
2023-02-15T13:01:59.780Z,14.2
2023-02-15T13:03:00.348Z,14.2
2023-02-15T13:03:59.983Z,14.1
2023-02-15T13:05:00.549Z,14.1
2023-02-15T13:06:00.176Z,14.2
2023-02-15T13:06:59.764Z,14.2
2023-02-15T13:08:00.401Z,14.3
2023-02-15T13:08:59.993Z,14.4
2023-02-15T13:09:59.625Z,14.4
2023-02-15T13:11:00.492Z,14.3
2023-02-15T13:11:59.827Z,14.4
2023-02-15T13:13:00.410Z,14.4
2023-02-15T13:14:00.001Z,14.5
2023-02-15T13:14:59.588Z,14.6
2023-02-15T13:16:00.326Z,14.6
2023-02-15T13:16:59.823Z,14.4
2023-02-15T13:18:00.416Z,14.4
2023-02-15T13:19:00.004Z,14.4
2023-02-15T13:19:59.589Z,14.4
2023-02-15T13:21:00.283Z,14.4
2023-02-15T13:21:59.833Z,14.4
2023-02-15T13:23:00.418Z,14.4
2023-02-15T13:24:00.124Z,14.3
2023-02-15T13:24:59.593Z,14.3
2023-02-15T13:26:00.200Z,14.4
2023-02-15T13:27:13.062Z,14.4
2023-02-15T13:28:00.327Z,14.4
2023-02-15T13:28:59.914Z,14.5
2023-02-15T13:30:00.583Z,14.5
2023-02-15T13:31:00.781Z,14.4
2023-02-15T13:31:59.691Z,14.3
2023-02-15T13:33:00.324Z,14.3
2023-02-15T13:33:59.933Z,14.3
2023-02-15T13:35:00.545Z,14.3
2023-02-15T13:36:00.164Z,14.3
2023-02-15T13:36:59.722Z,14.3
2023-02-15T13:38:00.316Z,14.4
2023-02-15T13:38:59.923Z,14.4
2023-02-15T13:40:00.503Z,14.5
2023-02-15T13:41:00.370Z,14.5
2023-02-15T13:41:59.732Z,14.6
2023-02-15T13:43:00.307Z,14.5
2023-02-15T13:43:59.919Z,14.4
2023-02-15T13:45:00.474Z,14.5